Time;durP1;ratioP1;P1;durP2;ratioP2;P2;SDS_P1;SDS_P2;PMS_P1;PMS_P2;Temp;Humidity;BMP_temperature;BMP_pressure;BME280_temperature;BME280_humidity;BME280_pressure;Samples;Min_cycle;Max_cycle;Signal;HPM_P1;HPM_P2
2023/03/12 00:01:01;;;;;;;2.90;1.95;;;1.10;81.30;;;;;;5061249;28;20686;-83
2023/03/12 00:03:28;;;;;;;2.65;2.25;;;1.10;99.90;;;;;;5061712;28;20286;-85
2023/03/12 00:05:55;;;;;;;2.05;1.85;;;1.10;99.90;;;;;;5061012;28;20227;-85
2023/03/12 00:08:21;;;;;;;8.75;2.72;;;1.10;92.00;;;;;;5059949;28;20256;-85
2023/03/12 00:10:50;;;;;;;3.00;2.58;;;1.10;99.90;;;;;;5060252;28;20206;-85
2023/03/12 00:13:16;;;;;;;9.45;2.13;;;1.10;99.90;;;;;;5061485;28;20310;-84
2023/03/12 00:15:43;;;;;;;3.00;2.40;;;1.20;1.00;;;;;;5060730;28;20318;-84
2023/03/12 00:18:10;;;;;;;6.28;3.65;;;1.20;42.00;;;;;;5059960;28;20199;-84
2023/03/12 00:20:37;;;;;;;4.78;2.60;;;1.10;1.00;;;;;;5059923;28;20214;-84
2023/03/12 00:23:04;;;;;;;3.40;2.15;;;1.10;1.00;;;;;;5060410;28;20230;-84
2023/03/12 00:25:30;;;;;;;6.38;2.60;;;1.10;1.00;;;;;;5084596;22;20231;-80
2023/03/12 00:27:59;;;;;;;6.88;2.13;;;1.10;1.00;;;;;;5059744;28;20295;-80
2023/03/12 00:30:27;;;;;;;4.25;2.22;;;1.10;1.00;;;;;;5059736;28;20209;-80
2023/03/12 00:32:53;;;;;;;3.90;2.15;;;1.20;1.00;;;;;;5060657;28;20223;-79
2023/03/12 00:35:20;;;;;;;2.70;2.50;;;1.20;1.00;;;;;;5060524;28;20231;-81
2023/03/12 00:37:47;;;;;;;6.03;2.65;;;1.10;1.00;;;;;;5061086;28;20293;-79
2023/03/12 00:40:14;;;;;;;5.22;2.85;;;1.20;1.00;;;;;;5064676;28;20701;-79
2023/03/12 00:42:41;;;;;;;4.60;2.42;;;1.10;1.00;;;;;;5069327;28;20214;-80
2023/03/12 00:45:10;;;;;;;5.30;2.58;;;1.20;1.00;;;;;;5067077;28;20229;-79
2023/03/12 00:47:37;;;;;;;2.40;2.20;;;1.10;1.00;;;;;;5067461;28;20239;-79
2023/03/12 00:50:05;;;;;;;3.85;2.28;;;1.10;1.00;;;;;;5069927;28;20207;-79
2023/03/12 00:52:31;;;;;;;2.03;1.83;;;1.10;1.00;;;;;;5071376;28;20302;-79
2023/03/12 00:54:58;;;;;;;4.88;2.50;;;1.10;1.00;;;;;;5067428;28;20600;-79
2023/03/12 00:57:25;;;;;;;3.22;1.92;;;1.20;1.00;;;;;;5065051;28;20210;-81
2023/03/12 00:59:52;;;;;;;4.63;2.25;;;1.20;1.00;;;;;;5062200;28;20568;-79
2023/03/12 01:02:20;;;;;;;3.35;2.67;;;1.20;1.00;;;;;;5057757;28;20685;-80
2023/03/12 01:04:47;;;;;;;2.88;2.10;;;1.30;1.00;;;;;;5057551;28;20255;-79
2023/03/12 01:07:14;;;;;;;3.47;3.17;;;1.30;1.00;;;;;;5059375;28;20289;-79
2023/03/12 01:09:41;;;;;;;3.25;2.17;;;1.40;1.00;;;;;;5061969;28;20218;-79
2023/03/12 01:12:08;;;;;;;3.70;2.40;;;1.50;1.00;;;;;;5072657;28;20270;-79
2023/03/12 01:14:35;;;;;;;7.80;2.78;;;1.50;99.90;;;;;;5071108;28;20657;-80
2023/03/12 01:17:01;;;;;;;2.33;2.13;;;1.50;1.00;;;;;;5061065;28;20239;-79
2023/03/12 01:19:30;;;;;;;3.88;2.88;;;1.50;1.00;;;;;;5060662;28;20212;-79
2023/03/12 01:21:56;;;;;;;8.23;3.97;;;1.50;99.90;;;;;;5060049;28;20214;-80
2023/03/12 01:24:23;;;;;;;7.60;2.35;;;1.60;1.00;;;;;;5058843;28;20200;-79
2023/03/12 01:26:50;;;;;;;2.90;2.45;;;1.60;99.90;;;;;;5059623;28;20227;-79
2023/03/12 01:29:17;;;;;;;4.28;2.22;;;1.60;99.90;;;;;;5063167;28;20203;-79
2023/03/12 01:31:44;;;;;;;5.55;3.20;;;1.60;99.90;;;;;;5069271;28;20271;-79
2023/03/12 01:34:11;;;;;;;7.93;2.40;;;1.50;1.00;;;;;;5071036;28;20254;-78
2023/03/12 01:36:40;;;;;;;4.55;2.90;;;1.60;99.90;;;;;;5066066;28;20290;-78
2023/03/12 01:39:07;;;;;;;2.90;2.70;;;1.60;99.90;;;;;;5058727;28;20235;-79
2023/03/12 01:41:34;;;;;;;3.83;2.40;;;1.50;1.00;;;;;;5058681;28;20262;-79
2023/03/12 01:44:02;;;;;;;2.25;2.05;;;1.50;1.00;;;;;;5057600;28;20287;-80
2023/03/12 01:46:31;;;;;;;10.57;2.88;;;1.50;1.00;;;;;;5064692;28;20223;-80
2023/03/12 01:49:02;;;;;;;2.80;2.60;;;1.40;1.00;;;;;;5068507;28;20218;-80
2023/03/12 01:51:33;;;;;;;4.55;2.20;;;1.30;1.00;;;;;;5074745;28;20218;-79
2023/03/12 01:54:05;;;;;;;2.50;2.28;;;1.30;1.00;;;;;;5078848;28;20239;-78
2023/03/12 01:56:34;;;;;;;3.42;2.35;;;1.40;1.00;;;;;;5078916;28;20267;-78
2023/03/12 01:59:06;;;;;;;4.82;2.80;;;1.40;1.00;;;;;;5074095;28;20220;-79
2023/03/12 02:01:34;;;;;;;6.70;2.65;;;1.50;1.00;;;;;;5067794;28;20250;-79
2023/03/12 02:04:01;;;;;;;2.83;2.10;;;1.60;76.10;;;;;;5061768;28;20241;-79
2023/03/12 02:06:34;;;;;;;6.55;2.58;;;1.50;1.00;;;;;;5062938;28;20302;-79
2023/03/12 02:09:04;;;;;;;4.80;2.80;;;1.50;1.00;;;;;;5070436;28;20187;-79
2023/03/12 02:11:31;;;;;;;2.90;2.55;;;1.60;1.00;;;;;;5070003;28;20196;-79
2023/03/12 02:13:58;;;;;;;7.25;2.67;;;1.50;1.00;;;;;;5068036;28;20215;-79
2023/03/12 02:16:25;;;;;;;3.55;2.67;;;1.60;1.00;;;;;;5068198;28;20225;-78
2023/03/12 02:18:54;;;;;;;2.80;2.50;;;1.60;1.00;;;;;;5067672;28;20241;-78
2023/03/12 02:21:24;;;;;;;2.90;2.10;;;1.70;1.00;;;;;;5067719;28;20203;-79
2023/03/12 02:24:00;;;;;;;3.00;2.38;;;1.70;99.90;;;;;;5068471;28;20232;-79
2023/03/12 02:26:30;;;;;;;6.68;2.65;;;1.70;1.00;;;;;;5074546;28;20218;-79
2023/03/12 02:28:59;;;;;;;2.60;2.40;;;1.70;1.00;;;;;;5077036;28;20198;-79
2023/03/12 02:31:28;;;;;;;2.42;2.22;;;1.70;53.90;;;;;;5074620;28;20207;-78
2023/03/12 02:33:57;;;;;;;6.18;2.67;;;1.70;99.90;;;;;;5065566;28;20230;-79
2023/03/12 02:36:23;;;;;;;5.05;3.30;;;1.60;1.00;;;;;;5060616;28;20229;-79
2023/03/12 02:38:52;;;;;;;5.05;2.55;;;1.50;1.00;;;;;;5059692;28;20306;-79
2023/03/12 02:41:23;;;;;;;2.55;2.35;;;1.60;1.00;;;;;;5058295;28;20207;-79
2023/03/12 02:43:59;;;;;;;4.05;2.88;;;1.60;99.90;;;;;;5057565;28;20184;-78
2023/03/12 02:46:27;;;;;;;5.65;2.53;;;1.50;1.00;;;;;;5056687;28;20242;-78
2023/03/12 02:48:56;;;;;;;4.43;2.58;;;1.50;99.90;;;;;;5057507;28;20636;-79
2023/03/12 02:51:23;;;;;;;2.70;2.08;;;1.50;99.90;;;;;;5056814;28;20202;-79
2023/03/12 02:53:53;;;;;;;3.67;2.10;;;1.40;99.90;;;;;;5056703;28;20703;-79
2023/03/12 02:56:21;;;;;;;3.30;2.50;;;1.30;99.90;;;;;;5057120;28;20231;-79
2023/03/12 02:58:48;;;;;;;2.88;2.50;;;1.20;99.90;;;;;;5056336;28;20215;-79
2023/03/12 03:01:16;;;;;;;4.03;2.72;;;1.10;99.90;;;;;;5055697;28;20207;-79
2023/03/12 03:03:43;;;;;;;3.63;2.75;;;1.10;99.90;;;;;;5055852;28;20722;-79
2023/03/12 03:06:11;;;;;;;6.57;3.35;;;1.10;99.90;;;;;;5055801;28;20261;-80
2023/03/12 03:08:37;;;;;;;2.67;2.47;;;1.00;99.90;;;;;;5055953;28;20199;-79
2023/03/12 03:11:05;;;;;;;5.50;2.70;;;1.00;99.90;;;;;;5059712;28;20201;-78
2023/03/12 03:13:33;;;;;;;4.25;2.58;;;0.90;1.00;;;;;;5076882;28;20262;-79
2023/03/12 03:16:00;;;;;;;4.40;2.60;;;0.90;1.00;;;;;;5063264;28;20220;-79
2023/03/12 03:18:29;;;;;;;3.65;2.55;;;1.00;58.90;;;;;;5057433;28;20200;-78
2023/03/12 03:20:57;;;;;;;4.78;3.10;;;0.90;1.00;;;;;;5057671;28;20272;-80
2023/03/12 03:23:24;;;;;;;4.35;3.55;;;0.90;1.00;;;;;;5057624;28;20204;-80
2023/03/12 03:25:52;;;;;;;5.78;2.75;;;0.80;1.00;;;;;;5058427;28;20235;-79
2023/03/12 03:28:19;;;;;;;4.53;3.33;;;0.80;1.00;;;;;;5058697;28;20207;-79
2023/03/12 03:30:46;;;;;;;5.43;2.38;;;0.90;86.30;;;;;;5062898;28;20207;-80
2023/03/12 03:33:13;;;;;;;2.72;2.30;;;0.90;57.40;;;;;;5065315;28;20318;-80
2023/03/12 03:35:41;;;;;;;3.70;3.15;;;0.90;99.90;;;;;;5065902;28;20292;-80
2023/03/12 03:38:08;;;;;;;4.18;2.90;;;0.90;99.90;;;;;;5057869;28;20700;-79
2023/03/12 03:40:35;;;;;;;5.38;2.75;;;0.80;1.00;;;;;;5056270;28;20210;-79
2023/03/12 03:43:02;;;;;;;2.38;2.15;;;0.80;99.90;;;;;;5057753;28;20212;-80
2023/03/12 03:45:29;;;;;;;3.97;2.67;;;0.70;1.00;;;;;;5055355;28;20799;-79
2023/03/12 03:47:56;;;;;;;5.78;2.67;;;0.70;99.90;;;;;;5053866;28;20206;-79
2023/03/12 03:50:23;;;;;;;8.68;2.55;;;0.60;99.90;;;;;;5053943;28;20203;-78
2023/03/12 03:52:51;;;;;;;2.70;2.50;;;0.70;99.90;;;;;;5056429;28;20203;-79
2023/03/12 03:55:18;;;;;;;5.28;3.65;;;0.60;99.90;;;;;;5063046;28;20224;-79
2023/03/12 03:57:45;;;;;;;2.92;2.38;;;0.60;99.90;;;;;;5063881;28;20670;-80
2023/03/12 04:00:13;;;;;;;5.22;2.97;;;0.60;99.90;;;;;;5063479;28;20207;-79
2023/03/12 04:02:40;;;;;;;5.43;2.50;;;0.50;99.90;;;;;;5063098;28;20206;-79
2023/03/12 04:05:07;;;;;;;3.88;2.78;;;0.50;99.90;;;;;;5064206;28;20250;-79
2023/03/12 04:07:34;;;;;;;4.53;2.78;;;0.50;99.90;;;;;;5063212;28;20213;-79
2023/03/12 04:10:03;;;;;;;4.45;3.35;;;0.50;99.90;;;;;;5059526;28;20296;-80
2023/03/12 04:12:29;;;;;;;9.05;3.00;;;0.50;99.90;;;;;;5058533;28;20214;-78
2023/03/12 04:14:56;;;;;;;2.90;2.70;;;0.50;99.90;;;;;;5059109;28;20227;-78
2023/03/12 04:17:23;;;;;;;2.55;2.45;;;0.50;99.90;;;;;;5058644;28;20584;-78
2023/03/12 04:19:50;;;;;;;4.32;3.30;;;0.50;99.90;;;;;;5059769;28;20296;-78
2023/03/12 04:22:17;;;;;;;3.60;3.30;;;0.50;1.00;;;;;;5058944;28;20263;-80
2023/03/12 04:24:44;;;;;;;4.57;3.58;;;0.50;99.90;;;;;;5058239;28;20240;-79
2023/03/12 04:27:12;;;;;;;7.40;3.50;;;0.60;1.00;;;;;;5058433;28;20283;-79
2023/03/12 04:29:39;;;;;;;4.93;3.60;;;0.50;1.00;;;;;;5057176;28;20213;-80
2023/03/12 04:32:07;;;;;;;4.43;3.20;;;0.50;1.00;;;;;;5057928;28;20254;-80
2023/03/12 04:34:34;;;;;;;5.15;3.92;;;0.50;1.00;;;;;;5062723;28;20227;-78
2023/03/12 04:37:02;;;;;;;4.70;3.80;;;0.40;53.40;;;;;;5077219;28;20235;-81
2023/03/12 04:39:28;;;;;;;3.75;3.33;;;0.40;99.90;;;;;;5067995;28;20230;-79
2023/03/12 04:41:55;;;;;;;6.13;4.30;;;0.40;99.90;;;;;;5062477;28;20213;-79
2023/03/12 04:44:23;;;;;;;5.05;3.85;;;0.60;1.00;;;;;;5066232;28;20203;-78
2023/03/12 04:46:50;;;;;;;4.85;3.30;;;0.50;99.90;;;;;;5068335;28;20227;-80
2023/03/12 04:49:17;;;;;;;4.78;4.07;;;0.30;99.90;;;;;;5066044;28;20204;-80
2023/03/12 04:51:44;;;;;;;3.75;3.20;;;0.40;1.00;;;;;;5059184;28;20206;-79
2023/03/12 04:54:11;;;;;;;5.60;4.50;;;0.40;1.00;;;;;;5058631;28;20321;-79
2023/03/12 04:56:37;;;;;;;4.65;4.25;;;0.20;1.00;;;;;;5058233;28;20200;-79
2023/03/12 04:59:05;;;;;;;5.75;4.40;;;0.20;99.90;;;;;;5058727;28;20221;-79
2023/03/12 05:01:36;;;;;;;6.28;4.43;;;0.30;1.00;;;;;;5059121;28;20218;-79
2023/03/12 05:04:03;;;;;;;5.35;4.85;;;0.20;1.00;;;;;;5060901;28;20583;-79
2023/03/12 05:06:30;;;;;;;5.63;5.05;;;0.20;1.00;;;;;;5059926;28;20230;-82
2023/03/12 05:08:57;;;;;;;4.28;3.92;;;0.20;1.00;;;;;;5060525;28;20294;-81
2023/03/12 05:11:24;;;;;;;7.22;4.50;;;0.20;1.00;;;;;;5058646;28;20579;-81
2023/03/12 05:13:51;;;;;;;5.47;4.53;;;0.20;1.00;;;;;;5060452;28;20204;-80
2023/03/12 05:16:18;;;;;;;6.07;4.55;;;0.20;1.00;;;;;;5067172;28;20282;-79
2023/03/12 05:18:47;;;;;;;6.82;5.03;;;0.10;1.00;;;;;;5070122;28;20215;-80
2023/03/12 05:21:16;;;;;;;7.32;5.00;;;0.10;1.00;;;;;;5071614;28;20203;-80
2023/03/12 05:23:43;;;;;;;5.53;5.03;;;0.10;1.00;;;;;;5060871;28;20205;-81
2023/03/12 05:26:17;;;;;;;7.15;5.38;;;0.10;1.00;;;;;;5059371;28;20233;-81
2023/03/12 05:28:44;;;;;;;6.20;4.85;;;0.20;26.20;;;;;;5061653;28;20188;-81
2023/03/12 05:31:16;;;;;;;7.43;5.82;;;0.10;1.00;;;;;;5059837;28;20662;-82
2023/03/12 05:33:44;;;;;;;21.63;14.25;;;0.10;34.10;;;;;;5059256;28;20589;-81
2023/03/12 05:36:14;;;;;;;10.38;6.22;;;0.10;1.00;;;;;;5059378;28;20231;-81
2023/03/12 05:38:41;;;;;;;9.27;5.20;;;0.00;1.00;;;;;;5061925;28;20207;-80
2023/03/12 05:41:09;;;;;;;22.92;12.98;;;0.10;1.00;;;;;;5079266;28;20225;-80
2023/03/12 05:43:36;;;;;;;11.60;8.27;;;0.00;1.00;;;;;;5079121;28;20228;-80
2023/03/12 05:46:05;;;;;;;14.43;8.05;;;0.00;22.50;;;;;;5073869;28;20231;-80
2023/03/12 05:48:31;;;;;;;9.75;8.13;;;0.00;1.00;;;;;;5075737;28;20250;-80
2023/03/12 05:50:58;;;;;;;10.18;8.00;;;0.00;1.00;;;;;;5076705;28;20220;-80
2023/03/12 05:53:27;;;;;;;9.45;7.30;;;0.00;80.90;;;;;;5075615;28;20203;-80
2023/03/12 05:55:54;;;;;;;9.18;5.53;;;0.00;47.20;;;;;;5074135;28;20266;-80
2023/03/12 05:58:20;;;;;;;10.00;8.00;;;0.00;99.90;;;;;;5073695;28;20266;-80
2023/03/12 06:00:47;;;;;;;6.80;5.18;;;0.10;99.90;;;;;;5073188;28;20203;-80
2023/03/12 06:03:14;;;;;;;5.88;4.45;;;0.10;99.90;;;;;;5073206;28;20275;-81
2023/03/12 06:05:41;;;;;;;4.88;4.47;;;0.10;99.90;;;;;;5063237;28;20571;-81
2023/03/12 06:08:08;;;;;;;6.25;4.80;;;0.10;79.10;;;;;;5060234;28;20685;-81
2023/03/12 06:10:37;;;;;;;9.80;4.47;;;0.10;11.00;;;;;;5059354;28;20244;-81
2023/03/12 06:13:04;;;;;;;5.40;4.28;;;0.10;1.00;;;;;;5058506;28;20204;-81
2023/03/12 06:15:31;;;;;;;9.07;5.10;;;0.10;64.40;;;;;;5058016;28;20277;-80
2023/03/12 06:17:58;;;;;;;4.53;4.03;;;0.10;27.20;;;;;;5057923;28;20293;-80
2023/03/12 06:20:25;;;;;;;6.93;4.05;;;0.10;1.00;;;;;;5060990;28;20208;-80
2023/03/12 06:22:52;;;;;;;5.80;4.43;;;0.30;99.90;;;;;;5079250;28;20191;-80
2023/03/12 06:25:19;;;;;;;9.02;4.25;;;0.20;1.00;;;;;;5096209;22;20227;-84
2023/03/12 06:27:47;;;;;;;6.50;4.28;;;0.20;1.00;;;;;;5057700;28;20274;-84
2023/03/12 06:30:15;;;;;;;4.32;3.70;;;0.20;1.00;;;;;;5057815;28;20235;-83
2023/03/12 06:32:42;;;;;;;7.05;3.72;;;0.30;1.00;;;;;;5058638;28;20233;-83
2023/03/12 06:35:09;;;;;;;11.70;4.70;;;0.30;1.00;;;;;;5057152;28;20231;-82
2023/03/12 06:37:38;;;;;;;5.03;4.13;;;0.30;1.00;;;;;;5058370;28;20225;-83
2023/03/12 06:40:09;;;;;;;5.32;4.30;;;0.20;1.00;;;;;;5060229;28;20271;-83
2023/03/12 06:42:36;;;;;;;6.28;4.85;;;0.50;1.00;;;;;;5057978;28;20210;-84
2023/03/12 06:45:10;;;;;;;5.97;4.05;;;0.60;1.00;;;;;;5062669;28;20215;-83
2023/03/12 06:47:37;;;;;;;5.72;3.70;;;0.90;99.90;;;;;;5070396;28;20198;-83
2023/03/12 06:50:05;;;;;;;5.05;4.15;;;0.70;99.90;;;;;;5072452;28;20191;-85
2023/03/12 06:52:32;;;;;;;5.55;3.50;;;0.70;99.90;;;;;;5068931;28;20587;-82
2023/03/12 06:54:58;;;;;;;5.60;3.28;;;0.70;1.00;;;;;;5064991;28;20226;-82
2023/03/12 06:57:25;;;;;;;4.60;3.55;;;1.00;84.20;;;;;;5065494;28;20226;-84
2023/03/12 06:59:52;;;;;;;4.05;3.53;;;0.80;1.00;;;;;;5060176;28;20289;-83
2023/03/12 07:02:20;;;;;;;8.40;3.95;;;0.90;1.00;;;;;;5057621;28;20290;-86
2023/03/12 07:04:47;;;;;;;4.18;3.45;;;1.00;1.00;;;;;;5055172;28;20200;-84
2023/03/12 07:07:15;;;;;;;4.95;3.53;;;0.90;1.00;;;;;;5056084;28;20235;-86
2023/03/12 07:09:42;;;;;;;6.97;3.78;;;0.90;1.00;;;;;;5056329;28;20258;-83
2023/03/12 07:12:09;;;;;;;5.28;4.00;;;1.00;1.00;;;;;;5056648;28;20200;-83
2023/03/12 07:14:36;;;;;;;8.73;4.00;;;1.00;99.90;;;;;;5056769;28;20295;-83
2023/03/12 07:17:03;;;;;;;5.88;3.75;;;1.10;99.90;;;;;;5056781;28;20222;-83
2023/03/12 07:19:32;;;;;;;10.02;4.85;;;1.20;99.90;;;;;;5058322;28;20215;-85
2023/03/12 07:21:58;;;;;;;6.10;4.00;;;1.20;1.00;;;;;;5058016;28;20199;-83
2023/03/12 07:24:25;;;;;;;8.52;3.60;;;1.30;99.90;;;;;;5072571;28;20199;-83
2023/03/12 07:26:52;;;;;;;4.20;3.80;;;1.40;9.00;;;;;;5076870;28;20254;-84
2023/03/12 07:29:19;;;;;;;5.32;3.92;;;1.40;1.00;;;;;;5067290;28;20238;-86
2023/03/12 07:31:46;;;;;;;6.32;3.75;;;1.50;1.00;;;;;;5062893;28;20270;-85
2023/03/12 07:34:12;;;;;;;5.78;3.88;;;1.60;1.00;;;;;;5062533;28;20203;-84
2023/03/12 07:36:41;;;;;;;4.97;3.33;;;1.80;1.00;;;;;;5061317;28;20315;-85
2023/03/12 07:39:08;;;;;;;8.95;4.40;;;1.60;1.00;;;;;;5061156;28;20293;-83
2023/03/12 07:41:36;;;;;;;4.10;3.75;;;1.70;1.00;;;;;;5060028;28;20258;-84
2023/03/12 07:44:03;;;;;;;4.07;3.35;;;1.60;1.00;;;;;;5060306;28;20203;-84
2023/03/12 07:46:30;;;;;;;7.85;3.50;;;1.70;1.00;;;;;;5059687;28;20226;-83
2023/03/12 07:48:57;;;;;;;3.60;3.20;;;1.70;99.90;;;;;;5059826;28;20207;-84
2023/03/12 07:51:24;;;;;;;3.67;3.38;;;1.70;99.90;;;;;;5059548;28;20203;-84
2023/03/12 07:53:52;;;;;;;3.83;3.50;;;1.70;99.90;;;;;;5059947;28;20262;-84
2023/03/12 07:56:19;;;;;;;6.25;3.60;;;1.70;99.90;;;;;;5059799;28;20227;-83
2023/03/12 07:58:46;;;;;;;5.95;3.40;;;1.70;63.60;;;;;;5060454;28;20199;-84
2023/03/12 08:01:13;;;;;;;3.72;3.40;;;1.90;99.90;;;;;;5059665;28;20204;-85
2023/03/12 08:03:39;;;;;;;4.25;3.55;;;1.80;93.50;;;;;;5058812;28;20737;-84
2023/03/12 08:06:06;;;;;;;8.23;3.45;;;1.70;99.90;;;;;;5059055;28;20223;-85
2023/03/12 08:08:34;;;;;;;6.18;3.10;;;1.90;99.90;;;;;;5059464;28;20554;-84
2023/03/12 08:11:04;;;;;;;4.50;3.42;;;2.10;1.00;;;;;;5062131;28;20250;-85
2023/03/12 08:13:31;;;;;;;3.75;3.40;;;2.20;32.30;;;;;;5067712;28;20234;-84
2023/03/12 08:15:58;;;;;;;10.88;4.30;;;2.30;1.00;;;;;;5062986;28;20309;-85
2023/03/12 08:18:25;;;;;;;4.43;3.95;;;2.40;1.00;;;;;;5061370;28;20293;-83
2023/03/12 08:20:52;;;;;;;5.90;3.30;;;2.30;99.90;;;;;;5061663;28;20209;-85
2023/03/12 08:23:20;;;;;;;3.90;3.50;;;2.40;1.00;;;;;;5060398;28;20299;-85
2023/03/12 08:25:48;;;;;;;6.70;4.15;;;2.50;1.00;;;;;;5061266;28;20227;-84
2023/03/12 08:28:17;;;;;;;8.60;3.70;;;2.60;1.00;;;;;;5063926;28;20573;-85
2023/03/12 08:30:46;;;;;;;6.15;3.10;;;2.80;1.00;;;;;;5062193;28;20208;-85
2023/03/12 08:33:13;;;;;;;5.18;3.72;;;2.80;99.90;;;;;;5062362;28;20227;-84
2023/03/12 08:35:40;;;;;;;5.30;3.60;;;2.90;99.90;;;;;;5062427;28;20255;-85
2023/03/12 08:38:07;;;;;;;3.80;3.50;;;2.80;99.90;;;;;;5062021;28;20310;-85
2023/03/12 08:40:35;;;;;;;4.07;3.63;;;2.70;99.90;;;;;;5063149;28;20204;-85
2023/03/12 08:43:02;;;;;;;5.93;3.50;;;2.80;99.90;;;;;;5072235;28;20203;-84
2023/03/12 08:45:31;;;;;;;8.40;3.95;;;2.90;99.90;;;;;;5079391;28;20207;-84
2023/03/12 08:47:58;;;;;;;3.47;3.17;;;3.00;99.90;;;;;;5073085;28;20199;-84
2023/03/12 08:50:28;;;;;;;3.75;2.90;;;3.00;99.90;;;;;;5073662;28;20239;-83
2023/03/12 08:52:54;;;;;;;3.40;3.10;;;3.30;99.90;;;;;;5066310;28;20294;-84
2023/03/12 08:55:21;;;;;;;7.25;3.83;;;3.40;15.30;;;;;;5062143;28;20237;-84
2023/03/12 08:57:48;;;;;;;4.38;3.28;;;3.40;1.00;;;;;;5060429;28;20226;-84
2023/03/12 09:00:16;;;;;;;7.53;3.10;;;3.40;1.00;;;;;;5070309;28;20251;-84
2023/03/12 09:02:50;;;;;;;4.72;3.75;;;3.40;1.00;;;;;;5064084;28;20207;-84
2023/03/12 09:05:16;;;;;;;3.30;3.00;;;3.50;1.00;;;;;;5061337;28;20303;-84
2023/03/12 09:07:46;;;;;;;3.03;2.72;;;3.50;1.00;;;;;;5059574;28;20207;-84
2023/03/12 09:10:13;;;;;;;6.32;3.05;;;3.50;1.00;;;;;;5060189;28;20294;-85
2023/03/12 09:12:43;;;;;;;4.82;3.45;;;3.50;1.00;;;;;;5060858;28;20240;-84
2023/03/12 09:15:10;;;;;;;7.28;3.05;;;3.60;1.00;;;;;;5062503;28;20251;-85
2023/03/12 09:17:38;;;;;;;3.13;2.65;;;3.60;1.00;;;;;;5062436;28;20283;-83
2023/03/12 09:20:08;;;;;;;4.43;3.38;;;3.60;1.00;;;;;;5068342;28;20203;-84
2023/03/12 09:22:35;;;;;;;5.47;3.30;;;3.70;1.00;;;;;;5065488;28;20192;-83
2023/03/12 09:25:02;;;;;;;4.25;2.70;;;3.60;1.00;;;;;;5065089;28;20234;-85
2023/03/12 09:27:29;;;;;;;4.57;2.90;;;3.70;1.00;;;;;;5061891;28;20255;-85
2023/03/12 09:29:57;;;;;;;6.93;2.72;;;3.80;1.00;;;;;;5061059;28;20232;-87
2023/03/12 09:32:26;;;;;;;4.38;3.00;;;4.10;99.90;;;;;;5061320;28;20234;-86
2023/03/12 09:34:53;;;;;;;2.17;2.00;;;;;;;;;;5062618;28;20258;-84
2023/03/12 09:37:21;;;;;;;3.47;2.55;;;3.90;1.00;;;;;;5060275;28;20259;-84
2023/03/12 09:39:49;;;;;;;4.35;2.00;;;4.20;1.00;;;;;;5060807;28;20236;-85
2023/03/12 09:42:23;;;;;;;3.28;1.85;;;4.50;88.90;;;;;;5060292;28;20295;-85
2023/03/12 09:44:52;;;;;;;4.78;3.08;;;4.20;48.30;;;;;;5059957;28;20179;-86
2023/03/12 09:47:28;;;;;;;3.25;2.42;;;4.40;1.00;;;;;;5061743;28;20692;-84
2023/03/12 09:49:59;;;;;;;4.55;2.80;;;4.20;1.00;;;;;;5060753;28;20563;-83
2023/03/12 09:52:33;;;;;;;4.35;2.00;;;4.30;1.00;;;;;;5060006;28;20238;-84
2023/03/12 09:55:06;;;;;;;6.53;2.60;;;4.60;1.00;;;;;;5060152;28;20236;-85
2023/03/12 09:57:34;;;;;;;2.35;2.25;;;4.60;1.00;;;;;;5060168;28;20192;-84
2023/03/12 10:00:06;;;;;;;3.28;2.35;;;4.70;1.00;;;;;;5059154;28;20235;-85
2023/03/12 10:03:05;;;;;;;5.30;3.80;;;4.70;1.00;;;;;;5060221;28;20196;-85
2023/03/12 10:05:37;;;;;;;5.68;2.72;;;4.80;1.00;;;;;;5055211;28;20311;-85
2023/03/12 10:08:15;;;;;;;2.58;2.15;;;5.00;1.00;;;;;;5059285;28;20193;-84
2023/03/12 10:10:51;;;;;;;4.93;2.50;;;5.30;1.00;;;;;;5060575;28;20192;-85
2023/03/12 10:13:34;;;;;;;4.97;2.42;;;5.00;1.00;;;;;;5059515;28;20216;-84
2023/03/12 10:16:11;;;;;;;2.95;2.30;;;5.00;1.00;;;;;;5058939;28;20315;-87
2023/03/12 10:18:57;;;;;;;4.70;2.20;;;5.40;1.00;;;;;;5059785;28;20198;-85
2023/03/12 10:21:32;;;;;;;3.13;2.22;;;5.20;1.00;;;;;;5061252;28;20222;-85
2023/03/12 10:24:27;;;;;;;2.33;2.10;;;5.20;1.00;;;;;;5059491;28;20643;-84
2023/03/12 10:26:57;;;;;;;4.60;2.67;;;5.40;1.00;;;;;;5065001;28;20254;-83
2023/03/12 10:29:28;;;;;;;2.88;2.60;;;5.50;1.00;;;;;;5076585;28;20208;-85
2023/03/12 10:32:00;;;;;;;5.03;2.33;;;5.50;1.00;;;;;;5067602;28;20187;-85
2023/03/12 10:34:34;;;;;;;3.95;2.47;;;5.40;1.00;;;;;;5063462;28;20230;-86
2023/03/12 10:37:06;;;;;;;3.38;2.55;;;5.80;1.00;;;;;;5061230;28;20319;-85
2023/03/12 10:39:34;;;;;;;3.22;1.80;;;5.80;1.00;;;;;;5067158;28;20256;-85
2023/03/12 10:42:01;;;;;;;1.55;1.45;;;5.80;1.00;;;;;;5060204;28;20227;-84
2023/03/12 10:44:29;;;;;;;3.83;2.30;;;5.70;1.00;;;;;;5063739;28;20201;-84
2023/03/12 10:47:08;;;;;;;6.35;1.90;;;5.90;1.00;;;;;;5062718;28;20239;-83
2023/03/12 10:49:36;;;;;;;2.55;2.20;;;5.70;1.00;;;;;;5058512;28;20185;-83
2023/03/12 10:52:07;;;;;;;3.10;2.38;;;5.50;1.00;;;;;;5057821;28;20211;-85
2023/03/12 10:54:39;;;;;;;3.00;2.35;;;5.50;1.00;;;;;;5057876;28;20651;-84
2023/03/12 10:57:08;;;;;;;3.58;2.40;;;5.50;1.00;;;;;;5058089;28;20240;-83
2023/03/12 10:59:37;;;;;;;6.63;3.70;;;5.50;1.00;;;;;;5059937;28;20296;-83
2023/03/12 11:02:32;;;;;;;3.05;2.13;;;5.70;1.00;;;;;;5060073;28;20764;-84
2023/03/12 11:05:00;;;;;;;2.63;2.15;;;5.80;1.00;;;;;;5063786;28;20183;-84
2023/03/12 11:07:29;;;;;;;5.28;2.20;;;5.90;1.00;;;;;;5063612;28;20575;-84
2023/03/12 11:10:22;;;;;;;4.20;2.17;;;6.00;1.00;;;;;;5063452;28;20216;-85
2023/03/12 11:13:02;;;;;;;5.38;2.50;;;6.00;1.00;;;;;;5049277;28;20204;-85
2023/03/12 11:15:37;;;;;;;3.60;2.30;;;6.10;1.00;;;;;;5064976;28;20227;-84
2023/03/12 11:18:22;;;;;;;7.97;3.15;;;6.30;1.00;;;;;;5064854;28;20642;-84
2023/03/12 11:20:51;;;;;;;3.50;3.20;;;6.10;1.00;;;;;;5061946;28;20192;-84
2023/03/12 11:23:22;;;;;;;3.40;3.10;;;6.10;1.00;;;;;;5060259;28;20203;-84
2023/03/12 11:25:56;;;;;;;7.15;4.20;;;6.10;1.00;;;;;;5061363;28;20233;-83
2023/03/12 11:28:27;;;;;;;4.22;3.85;;;6.10;1.00;;;;;;5060627;28;20197;-85
2023/03/12 11:31:01;;;;;;;4.55;3.65;;;6.10;1.00;;;;;;5063577;28;20196;-86
2023/03/12 11:33:29;;;;;;;11.85;4.15;;;6.40;1.00;;;;;;5061796;28;20211;-84
2023/03/12 11:36:14;;;;;;;4.22;3.10;;;7.40;1.00;;;;;;5062058;28;20228;-86
2023/03/12 11:38:44;;;;;;;10.25;4.43;;;6.50;1.00;;;;;;5060945;28;20639;-85
2023/03/12 11:41:32;;;;;;;5.90;3.40;;;6.40;1.00;;;;;;5060941;28;20277;-84
2023/03/12 11:44:16;;;;;;;4.55;2.78;;;6.40;1.00;;;;;;5059826;28;20230;-84
2023/03/12 11:47:03;;;;;;;11.68;7.70;;;6.30;1.00;;;;;;5059841;28;20216;-85
2023/03/12 11:49:40;;;;;;;3.47;3.15;;;6.50;1.00;;;;;;5060098;28;20248;-83
2023/03/12 11:52:14;;;;;;;4.30;3.90;;;6.60;1.00;;;;;;5059578;28;20237;-84
2023/03/12 11:55:07;;;;;;;3.80;3.50;;;6.90;1.00;;;;;;5061162;28;20436;-84
2023/03/12 11:57:46;;;;;;;3.55;3.25;;;6.70;1.00;;;;;;5059558;28;20208;-83
2023/03/12 12:00:16;;;;;;;3.72;3.42;;;6.60;1.00;;;;;;5060936;28;20192;-84
2023/03/12 12:03:04;;;;;;;5.22;3.20;;;6.60;1.00;;;;;;5061687;28;20637;-84
2023/03/12 12:05:38;;;;;;;3.45;3.05;;;6.60;1.00;;;;;;5063791;28;20312;-83
2023/03/12 12:08:26;;;;;;;5.18;4.13;;;6.70;1.00;;;;;;5072499;28;20225;-83
2023/03/12 12:11:00;;;;;;;8.43;4.53;;;6.90;1.00;;;;;;5074835;28;20242;-85
2023/03/12 12:13:37;;;;;;;6.38;3.75;;;7.00;1.00;;;;;;5062798;28;20256;-84
2023/03/12 12:16:22;;;;;;;4.70;4.07;;;6.90;1.00;;;;;;5062275;28;20609;-84
2023/03/12 12:19:01;;;;;;;7.38;4.20;;;6.60;1.00;;;;;;5061073;28;20276;-84
2023/03/12 12:21:43;;;;;;;6.57;4.20;;;6.60;1.00;;;;;;5062778;28;20193;-84
2023/03/12 12:24:20;;;;;;;8.50;4.45;;;6.60;1.00;;;;;;5062108;28;20189;-84
2023/03/12 12:26:55;;;;;;;5.25;3.88;;;6.60;1.00;;;;;;5061773;28;20293;-85
2023/03/12 12:31:55;;;;;;;3.93;3.50;;;6.70;1.00;;;;;;5101381;28;20472;-79
2023/03/12 12:34:44;;;;;;;3.75;3.25;;;6.90;1.00;;;;;;5100950;28;20433;-80
2023/03/12 12:37:33;;;;;;;3.58;3.00;;;7.00;1.00;;;;;;5100150;28;20377;-79
2023/03/12 12:40:11;;;;;;;6.03;5.07;;;7.10;1.00;;;;;;5091958;28;20227;-79
2023/03/12 12:42:49;;;;;;;3.95;2.75;;;6.80;1.00;;;;;;5079284;28;20434;-80
2023/03/12 12:45:17;;;;;;;7.10;3.20;;;6.90;1.00;;;;;;5089170;28;20275;-78
2023/03/12 12:47:50;;;;;;;4.00;3.70;;;6.80;1.00;;;;;;5084489;28;20200;-79
2023/03/12 12:50:20;;;;;;;4.25;3.40;;;6.70;1.00;;;;;;5078711;28;20247;-79
2023/03/12 12:52:54;;;;;;;7.17;3.00;;;6.90;1.00;;;;;;5079362;28;20610;-79
2023/03/12 12:55:26;;;;;;;5.25;2.70;;;6.70;1.00;;;;;;5078797;28;20492;-79
2023/03/12 12:57:59;;;;;;;3.45;2.70;;;6.70;1.00;;;;;;5078785;28;20219;-79
2023/03/12 13:00:43;;;;;;;5.80;3.50;;;6.80;1.00;;;;;;5081608;28;20335;-80
2023/03/12 13:03:16;;;;;;;5.75;3.70;;;6.60;1.00;;;;;;5077993;28;20187;-79
2023/03/12 13:05:53;;;;;;;3.60;3.30;;;6.60;1.00;;;;;;5078805;28;20215;-80
2023/03/12 13:08:36;;;;;;;3.67;3.07;;;6.60;1.00;;;;;;5082059;28;20242;-80
2023/03/12 13:11:23;;;;;;;11.10;6.18;;;6.60;1.00;;;;;;5084255;28;20473;-82
2023/03/12 13:13:52;;;;;;;4.22;2.40;;;6.60;1.00;;;;;;5083639;28;20654;-80
2023/03/12 13:16:32;;;;;;;3.33;2.90;;;6.60;1.00;;;;;;5083120;28;20228;-80
2023/03/12 13:19:04;;;;;;;4.88;3.08;;;6.70;1.00;;;;;;5081562;28;20198;-80